KSEE/SEE METAR and TAF weather

Enter ICAO airport designator
Station Type Date Time Source
KSEE METAR 2019/10/15 20:47 UTC NOAA

KSEE 152047Z 29010KT 10SM SKC 27/12 A2993


Station Type Date Time Source
KSEE Decoded METAR 2019/10/15 20:47 UTC NOAA

San Diego/El Cajon, Gillespie Field Airport, CA, United States (KSEE) 32-49-34N 116-58-20W
Oct 15, 2019 - 04:47 PM EDT / 2019.10.15 2047 UTC
Wind: from the WNW (290 degrees) at 12 MPH (10 KT):0
Visibility: 10 mile(s):0
Sky conditions: clear
Temperature: 80 F (27 C)
Dew Point: 53 F (12 C)
Relative Humidity: 39%
Pressure (altimeter): 29.93 in. Hg (1013 hPa)
ob: KSEE 152047Z 29010KT 10SM SKC 27/12 A2993
cycle: 21

Station Type Date Time Source
KSEE TAF UTC NOAA

Error!

Example: see airport list